Amity, Missouri
Current Conditions -  °F | °C
As of 3:53 AM on Thursday 29 Jan 2015 (Local Time) from KSTJ Reporting Station
Overcast Overcast  
Wind Chill: 28°   Ceiling: 2100
Heat Index: 40°   Visibility: 10mi
Dew Point: 31°   Wind: 31mph
Humidity: 70%   Direction: 340°NNW
Pressure: 30.08"   Gusts: 41mph
Location:  39.87°N, 94.44°W
Report Text: KSTJ 290953Z AUTO 34027G36KT 10SM OVC021 04/M01 A3008 RMK AO2 PK WND 34036/0939 SLP184 T00441006 $
Loading
Personal Weather Stations






























Interactive Weather Map New forecast layout! Learn more

10-Day Weather Forecast

Advertisements
Track Severe Weather on mobile